sensor_id;sensor_type;location;lat;lon;timestamp;P1;durP1;ratioP1;P2;durP2;ratioP2
21091;SDS011;10704;42.678;23.288;2023-04-15T00:01:37;17.98;;;9.70;;
21091;SDS011;10704;42.678;23.288;2023-04-15T00:04:03;19.98;;;9.63;;
21091;SDS011;10704;42.678;23.288;2023-04-15T00:06:29;18.20;;;9.45;;
21091;SDS011;10704;42.678;23.288;2023-04-15T00:08:55;25.95;;;12.23;;
21091;SDS011;10704;42.678;23.288;2023-04-15T00:11:21;21.02;;;10.10;;
21091;SDS011;10704;42.678;23.288;2023-04-15T00:13:48;16.88;;;8.68;;
21091;SDS011;10704;42.678;23.288;2023-04-15T00:16:14;16.08;;;8.93;;
21091;SDS011;10704;42.678;23.288;2023-04-15T00:18:40;16.92;;;8.70;;
21091;SDS011;10704;42.678;23.288;2023-04-15T00:21:06;16.30;;;8.90;;
21091;SDS011;10704;42.678;23.288;2023-04-15T00:23:32;14.18;;;7.90;;
21091;SDS011;10704;42.678;23.288;2023-04-15T00:25:58;13.68;;;8.20;;
21091;SDS011;10704;42.678;23.288;2023-04-15T00:28:24;18.65;;;9.10;;
21091;SDS011;10704;42.678;23.288;2023-04-15T00:30:50;12.73;;;7.45;;
21091;SDS011;10704;42.678;23.288;2023-04-15T00:33:16;16.58;;;8.20;;
21091;SDS011;10704;42.678;23.288;2023-04-15T00:35:42;12.80;;;7.07;;
21091;SDS011;10704;42.678;23.288;2023-04-15T00:38:08;12.15;;;6.60;;
21091;SDS011;10704;42.678;23.288;2023-04-15T00:40:34;13.23;;;7.03;;
21091;SDS011;10704;42.678;23.288;2023-04-15T00:43:00;11.00;;;5.85;;
21091;SDS011;10704;42.678;23.288;2023-04-15T00:45:27;13.07;;;6.55;;
21091;SDS011;10704;42.678;23.288;2023-04-15T00:47:53;14.05;;;6.45;;
21091;SDS011;10704;42.678;23.288;2023-04-15T00:50:20;14.38;;;6.20;;
21091;SDS011;10704;42.678;23.288;2023-04-15T00:52:47;12.70;;;5.60;;
21091;SDS011;10704;42.678;23.288;2023-04-15T00:55:13;15.80;;;7.15;;
21091;SDS011;10704;42.678;23.288;2023-04-15T00:57:39;13.20;;;6.32;;
21091;SDS011;10704;42.678;23.288;2023-04-15T01:00:06;13.95;;;6.55;;
21091;SDS011;10704;42.678;23.288;2023-04-15T01:02:33;11.63;;;6.22;;
21091;SDS011;10704;42.678;23.288;2023-04-15T01:05:01;15.23;;;7.45;;
21091;SDS011;10704;42.678;23.288;2023-04-15T01:07:28;14.40;;;7.18;;
21091;SDS011;10704;42.678;23.288;2023-04-15T01:09:55;13.88;;;6.90;;
21091;SDS011;10704;42.678;23.288;2023-04-15T01:12:21;17.00;;;7.90;;
21091;SDS011;10704;42.678;23.288;2023-04-15T01:14:50;14.65;;;6.80;;
21091;SDS011;10704;42.678;23.288;2023-04-15T01:17:17;15.05;;;6.80;;
21091;SDS011;10704;42.678;23.288;2023-04-15T01:19:43;12.32;;;6.22;;
21091;SDS011;10704;42.678;23.288;2023-04-15T01:22:09;12.90;;;6.82;;
21091;SDS011;10704;42.678;23.288;2023-04-15T01:24:37;11.23;;;5.72;;
21091;SDS011;10704;42.678;23.288;2023-04-15T01:27:03;12.57;;;5.82;;
21091;SDS011;10704;42.678;23.288;2023-04-15T01:29:31;9.70;;;5.90;;
21091;SDS011;10704;42.678;23.288;2023-04-15T01:31:57;11.65;;;6.35;;
21091;SDS011;10704;42.678;23.288;2023-04-15T01:34:25;9.30;;;5.60;;
21091;SDS011;10704;42.678;23.288;2023-04-15T01:36:52;11.15;;;5.70;;
21091;SDS011;10704;42.678;23.288;2023-04-15T01:39:20;10.55;;;6.00;;
21091;SDS011;10704;42.678;23.288;2023-04-15T01:41:46;13.00;;;6.03;;
21091;SDS011;10704;42.678;23.288;2023-04-15T01:44:14;11.90;;;6.00;;
21091;SDS011;10704;42.678;23.288;2023-04-15T01:46:40;11.73;;;6.32;;
21091;SDS011;10704;42.678;23.288;2023-04-15T01:49:06;11.90;;;6.43;;
21091;SDS011;10704;42.678;23.288;2023-04-15T01:51:32;18.08;;;8.15;;
21091;SDS011;10704;42.678;23.288;2023-04-15T01:53:58;12.85;;;6.30;;
21091;SDS011;10704;42.678;23.288;2023-04-15T01:56:24;11.93;;;6.05;;
21091;SDS011;10704;42.678;23.288;2023-04-15T01:58:51;13.13;;;6.80;;
21091;SDS011;10704;42.678;23.288;2023-04-15T02:01:17;11.18;;;6.30;;
21091;SDS011;10704;42.678;23.288;2023-04-15T02:03:46;12.18;;;5.80;;
21091;SDS011;10704;42.678;23.288;2023-04-15T02:06:13;13.63;;;6.35;;
21091;SDS011;10704;42.678;23.288;2023-04-15T02:08:39;11.38;;;6.30;;
21091;SDS011;10704;42.678;23.288;2023-04-15T02:11:06;10.32;;;5.72;;
21091;SDS011;10704;42.678;23.288;2023-04-15T02:13:32;11.73;;;6.25;;
21091;SDS011;10704;42.678;23.288;2023-04-15T02:15:58;12.98;;;6.50;;
21091;SDS011;10704;42.678;23.288;2023-04-15T02:18:24;10.27;;;5.93;;
21091;SDS011;10704;42.678;23.288;2023-04-15T02:20:51;12.50;;;6.18;;
21091;SDS011;10704;42.678;23.288;2023-04-15T02:23:17;12.57;;;6.35;;
21091;SDS011;10704;42.678;23.288;2023-04-15T02:25:43;12.25;;;6.07;;
21091;SDS011;10704;42.678;23.288;2023-04-15T02:28:09;11.85;;;5.63;;
21091;SDS011;10704;42.678;23.288;2023-04-15T02:30:35;13.23;;;7.22;;
21091;SDS011;10704;42.678;23.288;2023-04-15T02:33:01;14.20;;;6.32;;
21091;SDS011;10704;42.678;23.288;2023-04-15T02:35:27;11.02;;;5.88;;
21091;SDS011;10704;42.678;23.288;2023-04-15T02:37:53;9.82;;;5.43;;
21091;SDS011;10704;42.678;23.288;2023-04-15T02:40:20;11.32;;;5.00;;
21091;SDS011;10704;42.678;23.288;2023-04-15T02:42:46;9.88;;;5.22;;
21091;SDS011;10704;42.678;23.288;2023-04-15T02:45:14;11.20;;;4.20;;
21091;SDS011;10704;42.678;23.288;2023-04-15T02:47:41;14.55;;;6.13;;
21091;SDS011;10704;42.678;23.288;2023-04-15T02:50:09;10.68;;;5.72;;
21091;SDS011;10704;42.678;23.288;2023-04-15T02:52:41;10.38;;;5.43;;
21091;SDS011;10704;42.678;23.288;2023-04-15T02:55:08;13.50;;;5.32;;
21091;SDS011;10704;42.678;23.288;2023-04-15T02:57:35;12.45;;;6.10;;
21091;SDS011;10704;42.678;23.288;2023-04-15T03:00:05;18.08;;;8.52;;
21091;SDS011;10704;42.678;23.288;2023-04-15T03:02:36;14.18;;;8.60;;
21091;SDS011;10704;42.678;23.288;2023-04-15T03:05:03;17.75;;;8.70;;
21091;SDS011;10704;42.678;23.288;2023-04-15T03:07:33;17.10;;;8.88;;
21091;SDS011;10704;42.678;23.288;2023-04-15T03:10:00;15.45;;;9.27;;
21091;SDS011;10704;42.678;23.288;2023-04-15T03:12:26;17.83;;;9.15;;
21091;SDS011;10704;42.678;23.288;2023-04-15T03:14:55;16.98;;;8.80;;
21091;SDS011;10704;42.678;23.288;2023-04-15T03:17:27;15.57;;;8.18;;
21091;SDS011;10704;42.678;23.288;2023-04-15T03:19:53;17.85;;;8.82;;
21091;SDS011;10704;42.678;23.288;2023-04-15T03:22:19;22.52;;;11.65;;
21091;SDS011;10704;42.678;23.288;2023-04-15T03:24:45;16.60;;;9.70;;
21091;SDS011;10704;42.678;23.288;2023-04-15T03:27:11;27.05;;;12.95;;
21091;SDS011;10704;42.678;23.288;2023-04-15T03:29:38;16.42;;;8.88;;
21091;SDS011;10704;42.678;23.288;2023-04-15T03:32:04;14.10;;;8.18;;
21091;SDS011;10704;42.678;23.288;2023-04-15T03:34:32;15.35;;;8.32;;
21091;SDS011;10704;42.678;23.288;2023-04-15T03:36:58;14.57;;;8.45;;
21091;SDS011;10704;42.678;23.288;2023-04-15T03:39:24;14.70;;;8.38;;
21091;SDS011;10704;42.678;23.288;2023-04-15T03:41:50;16.23;;;8.60;;
21091;SDS011;10704;42.678;23.288;2023-04-15T03:44:16;19.80;;;8.82;;
21091;SDS011;10704;42.678;23.288;2023-04-15T03:46:42;16.90;;;8.98;;
21091;SDS011;10704;42.678;23.288;2023-04-15T03:49:08;16.50;;;9.40;;
21091;SDS011;10704;42.678;23.288;2023-04-15T03:51:33;13.85;;;8.73;;
21091;SDS011;10704;42.678;23.288;2023-04-15T03:54:00;14.57;;;8.48;;
21091;SDS011;10704;42.678;23.288;2023-04-15T03:56:26;16.95;;;8.55;;
21091;SDS011;10704;42.678;23.288;2023-04-15T03:58:52;17.30;;;8.55;;
21091;SDS011;10704;42.678;23.288;2023-04-15T04:01:18;15.73;;;9.13;;
21091;SDS011;10704;42.678;23.288;2023-04-15T04:03:44;13.30;;;7.70;;
21091;SDS011;10704;42.678;23.288;2023-04-15T04:06:10;18.63;;;9.68;;
21091;SDS011;10704;42.678;23.288;2023-04-15T04:08:36;17.58;;;9.20;;
21091;SDS011;10704;42.678;23.288;2023-04-15T04:11:03;15.27;;;9.93;;
21091;SDS011;10704;42.678;23.288;2023-04-15T04:13:29;16.40;;;9.45;;
21091;SDS011;10704;42.678;23.288;2023-04-15T04:15:55;16.92;;;9.90;;
21091;SDS011;10704;42.678;23.288;2023-04-15T04:18:21;21.42;;;9.77;;
21091;SDS011;10704;42.678;23.288;2023-04-15T04:20:47;17.42;;;9.70;;
21091;SDS011;10704;42.678;23.288;2023-04-15T04:23:13;17.95;;;10.18;;
21091;SDS011;10704;42.678;23.288;2023-04-15T04:25:38;14.40;;;8.10;;
21091;SDS011;10704;42.678;23.288;2023-04-15T04:28:04;15.77;;;8.13;;
21091;SDS011;10704;42.678;23.288;2023-04-15T04:30:30;19.77;;;8.32;;
21091;SDS011;10704;42.678;23.288;2023-04-15T04:32:56;14.10;;;8.13;;
21091;SDS011;10704;42.678;23.288;2023-04-15T04:35:22;17.63;;;7.95;;
21091;SDS011;10704;42.678;23.288;2023-04-15T04:37:48;16.23;;;8.70;;
21091;SDS011;10704;42.678;23.288;2023-04-15T04:40:15;16.17;;;8.50;;
21091;SDS011;10704;42.678;23.288;2023-04-15T04:42:41;23.45;;;11.77;;
21091;SDS011;10704;42.678;23.288;2023-04-15T04:45:07;17.13;;;8.30;;
21091;SDS011;10704;42.678;23.288;2023-04-15T04:47:33;15.70;;;8.20;;
21091;SDS011;10704;42.678;23.288;2023-04-15T04:49:58;12.20;;;7.57;;
21091;SDS011;10704;42.678;23.288;2023-04-15T04:52:24;13.45;;;8.55;;
21091;SDS011;10704;42.678;23.288;2023-04-15T04:54:50;17.70;;;10.48;;
21091;SDS011;10704;42.678;23.288;2023-04-15T04:57:16;23.92;;;15.32;;
21091;SDS011;10704;42.678;23.288;2023-04-15T04:59:42;26.33;;;18.02;;
21091;SDS011;10704;42.678;23.288;2023-04-15T05:02:08;26.20;;;17.40;;
21091;SDS011;10704;42.678;23.288;2023-04-15T05:04:34;26.65;;;17.67;;
21091;SDS011;10704;42.678;23.288;2023-04-15T05:07:01;25.95;;;16.73;;
21091;SDS011;10704;42.678;23.288;2023-04-15T05:09:26;21.60;;;15.38;;
21091;SDS011;10704;42.678;23.288;2023-04-15T05:11:54;18.17;;;12.40;;
21091;SDS011;10704;42.678;23.288;2023-04-15T05:14:20;15.75;;;9.60;;
21091;SDS011;10704;42.678;23.288;2023-04-15T05:16:46;13.80;;;8.40;;
21091;SDS011;10704;42.678;23.288;2023-04-15T05:19:12;12.73;;;7.25;;
21091;SDS011;10704;42.678;23.288;2023-04-15T05:21:38;12.90;;;7.03;;
21091;SDS011;10704;42.678;23.288;2023-04-15T05:24:04;13.20;;;6.47;;
21091;SDS011;10704;42.678;23.288;2023-04-15T05:26:30;12.27;;;6.65;;
21091;SDS011;10704;42.678;23.288;2023-04-15T05:28:56;13.18;;;5.65;;
21091;SDS011;10704;42.678;23.288;2023-04-15T05:31:22;13.43;;;6.13;;
21091;SDS011;10704;42.678;23.288;2023-04-15T05:33:48;13.65;;;6.65;;
21091;SDS011;10704;42.678;23.288;2023-04-15T05:36:13;14.30;;;6.78;;
21091;SDS011;10704;42.678;23.288;2023-04-15T05:38:39;10.15;;;6.20;;
21091;SDS011;10704;42.678;23.288;2023-04-15T05:41:06;9.00;;;5.72;;
21091;SDS011;10704;42.678;23.288;2023-04-15T05:43:32;11.35;;;6.03;;
21091;SDS011;10704;42.678;23.288;2023-04-15T05:45:58;8.07;;;5.45;;
21091;SDS011;10704;42.678;23.288;2023-04-15T05:48:24;12.35;;;6.25;;
21091;SDS011;10704;42.678;23.288;2023-04-15T05:50:50;12.27;;;6.57;;
21091;SDS011;10704;42.678;23.288;2023-04-15T05:53:16;12.73;;;6.60;;
21091;SDS011;10704;42.678;23.288;2023-04-15T05:55:41;13.38;;;6.85;;
21091;SDS011;10704;42.678;23.288;2023-04-15T05:58:07;12.82;;;6.80;;
21091;SDS011;10704;42.678;23.288;2023-04-15T06:00:33;13.63;;;5.80;;
21091;SDS011;10704;42.678;23.288;2023-04-15T06:02:59;10.23;;;5.93;;
21091;SDS011;10704;42.678;23.288;2023-04-15T06:05:25;10.48;;;5.97;;
21091;SDS011;10704;42.678;23.288;2023-04-15T06:07:52;13.10;;;6.05;;
21091;SDS011;10704;42.678;23.288;2023-04-15T06:10:17;10.18;;;5.47;;
21091;SDS011;10704;42.678;23.288;2023-04-15T06:12:43;12.75;;;6.93;;
21091;SDS011;10704;42.678;23.288;2023-04-15T06:15:10;13.02;;;6.05;;
21091;SDS011;10704;42.678;23.288;2023-04-15T06:17:36;10.02;;;6.50;;
21091;SDS011;10704;42.678;23.288;2023-04-15T06:20:02;13.35;;;6.80;;
21091;SDS011;10704;42.678;23.288;2023-04-15T06:22:28;15.15;;;5.72;;
21091;SDS011;10704;42.678;23.288;2023-04-15T06:24:54;17.80;;;6.38;;
21091;SDS011;10704;42.678;23.288;2023-04-15T06:27:20;11.80;;;5.32;;
21091;SDS011;10704;42.678;23.288;2023-04-15T06:29:47;9.30;;;5.45;;
21091;SDS011;10704;42.678;23.288;2023-04-15T06:32:13;10.73;;;5.50;;
21091;SDS011;10704;42.678;23.288;2023-04-15T06:34:38;14.07;;;5.63;;
21091;SDS011;10704;42.678;23.288;2023-04-15T06:37:04;9.75;;;6.05;;
21091;SDS011;10704;42.678;23.288;2023-04-15T06:39:30;11.05;;;6.10;;
21091;SDS011;10704;42.678;23.288;2023-04-15T06:41:56;15.77;;;6.90;;
21091;SDS011;10704;42.678;23.288;2023-04-15T06:44:22;9.65;;;5.93;;
21091;SDS011;10704;42.678;23.288;2023-04-15T06:46:49;10.40;;;6.38;;
21091;SDS011;10704;42.678;23.288;2023-04-15T06:49:15;14.35;;;5.80;;
21091;SDS011;10704;42.678;23.288;2023-04-15T06:51:41;11.70;;;5.45;;
21091;SDS011;10704;42.678;23.288;2023-04-15T06:54:07;10.70;;;5.80;;
21091;SDS011;10704;42.678;23.288;2023-04-15T06:56:33;10.23;;;6.00;;
21091;SDS011;10704;42.678;23.288;2023-04-15T06:58:59;10.73;;;6.43;;
21091;SDS011;10704;42.678;23.288;2023-04-15T07:01:25;12.70;;;5.88;;
21091;SDS011;10704;42.678;23.288;2023-04-15T07:03:51;12.80;;;5.88;;
21091;SDS011;10704;42.678;23.288;2023-04-15T07:06:17;13.50;;;5.68;;
21091;SDS011;10704;42.678;23.288;2023-04-15T07:08:44;10.90;;;5.47;;
21091;SDS011;10704;42.678;23.288;2023-04-15T07:11:09;10.43;;;5.05;;
21091;SDS011;10704;42.678;23.288;2023-04-15T07:13:36;14.20;;;5.70;;
21091;SDS011;10704;42.678;23.288;2023-04-15T07:16:02;8.23;;;5.18;;
21091;SDS011;10704;42.678;23.288;2023-04-15T07:18:28;10.70;;;4.75;;
21091;SDS011;10704;42.678;23.288;2023-04-15T07:20:54;10.00;;;5.15;;
21091;SDS011;10704;42.678;23.288;2023-04-15T07:23:20;12.85;;;5.55;;
21091;SDS011;10704;42.678;23.288;2023-04-15T07:25:46;11.88;;;5.35;;
21091;SDS011;10704;42.678;23.288;2023-04-15T07:28:13;10.18;;;5.47;;
21091;SDS011;10704;42.678;23.288;2023-04-15T07:30:38;9.73;;;5.43;;
21091;SDS011;10704;42.678;23.288;2023-04-15T07:33:04;11.60;;;5.05;;
21091;SDS011;10704;42.678;23.288;2023-04-15T07:35:31;11.05;;;4.70;;
21091;SDS011;10704;42.678;23.288;2023-04-15T07:37:57;7.75;;;4.38;;
21091;SDS011;10704;42.678;23.288;2023-04-15T07:40:23;9.38;;;4.93;;
21091;SDS011;10704;42.678;23.288;2023-04-15T07:42:49;12.73;;;4.78;;
21091;SDS011;10704;42.678;23.288;2023-04-15T07:45:15;10.45;;;4.10;;
21091;SDS011;10704;42.678;23.288;2023-04-15T07:47:41;10.13;;;4.40;;
21091;SDS011;10704;42.678;23.288;2023-04-15T07:50:08;8.40;;;3.75;;
21091;SDS011;10704;42.678;23.288;2023-04-15T07:52:35;13.05;;;4.80;;
21091;SDS011;10704;42.678;23.288;2023-04-15T07:55:06;9.50;;;4.65;;
21091;SDS011;10704;42.678;23.288;2023-04-15T07:57:33;9.55;;;4.47;;
21091;SDS011;10704;42.678;23.288;2023-04-15T08:00:00;8.23;;;4.07;;
21091;SDS011;10704;42.678;23.288;2023-04-15T08:02:38;11.00;;;4.53;;
21091;SDS011;10704;42.678;23.288;2023-04-15T08:05:04;9.57;;;4.10;;
21091;SDS011;10704;42.678;23.288;2023-04-15T08:07:31;6.63;;;3.25;;
21091;SDS011;10704;42.678;23.288;2023-04-15T08:09:57;8.75;;;3.50;;
21091;SDS011;10704;42.678;23.288;2023-04-15T08:12:23;10.18;;;3.17;;
21091;SDS011;10704;42.678;23.288;2023-04-15T08:14:50;6.75;;;3.15;;
21091;SDS011;10704;42.678;23.288;2023-04-15T08:17:16;5.70;;;2.58;;
21091;SDS011;10704;42.678;23.288;2023-04-15T08:19:42;6.60;;;2.25;;
21091;SDS011;10704;42.678;23.288;2023-04-15T08:22:08;7.57;;;2.08;;
21091;SDS011;10704;42.678;23.288;2023-04-15T08:24:36;5.63;;;2.50;;
21091;SDS011;10704;42.678;23.288;2023-04-15T08:27:02;5.40;;;1.90;;
21091;SDS011;10704;42.678;23.288;2023-04-15T08:29:30;5.00;;;1.90;;
21091;SDS011;10704;42.678;23.288;2023-04-15T08:31:58;3.90;;;1.85;;
21091;SDS011;10704;42.678;23.288;2023-04-15T08:34:25;3.78;;;1.27;;
21091;SDS011;10704;42.678;23.288;2023-04-15T08:36:52;3.45;;;1.60;;
21091;SDS011;10704;42.678;23.288;2023-04-15T08:39:17;7.80;;;2.03;;
21091;SDS011;10704;42.678;23.288;2023-04-15T08:41:49;3.60;;;1.70;;
21091;SDS011;10704;42.678;23.288;2023-04-15T08:44:20;5.55;;;1.63;;
21091;SDS011;10704;42.678;23.288;2023-04-15T08:46:49;5.78;;;1.92;;
21091;SDS011;10704;42.678;23.288;2023-04-15T08:49:17;4.95;;;1.65;;
21091;SDS011;10704;42.678;23.288;2023-04-15T08:51:45;5.25;;;2.10;;
21091;SDS011;10704;42.678;23.288;2023-04-15T08:54:11;4.40;;;1.60;;
21091;SDS011;10704;42.678;23.288;2023-04-15T08:56:37;6.47;;;1.60;;
21091;SDS011;10704;42.678;23.288;2023-04-15T08:59:03;4.90;;;1.60;;
21091;SDS011;10704;42.678;23.288;2023-04-15T09:01:30;3.15;;;1.38;;
21091;SDS011;10704;42.678;23.288;2023-04-15T09:03:56;6.25;;;1.50;;
21091;SDS011;10704;42.678;23.288;2023-04-15T09:06:23;3.85;;;1.40;;
21091;SDS011;10704;42.678;23.288;2023-04-15T09:08:50;3.85;;;1.67;;
21091;SDS011;10704;42.678;23.288;2023-04-15T09:11:16;4.85;;;1.30;;
21091;SDS011;10704;42.678;23.288;2023-04-15T09:13:43;5.07;;;1.45;;
21091;SDS011;10704;42.678;23.288;2023-04-15T09:16:10;3.22;;;1.10;;
21091;SDS011;10704;42.678;23.288;2023-04-15T09:18:36;7.60;;;1.42;;
21091;SDS011;10704;42.678;23.288;2023-04-15T09:21:06;4.32;;;1.05;;
21091;SDS011;10704;42.678;23.288;2023-04-15T09:23:33;2.38;;;0.80;;
21091;SDS011;10704;42.678;23.288;2023-04-15T09:26:01;2.20;;;0.80;;
21091;SDS011;10704;42.678;23.288;2023-04-15T09:28:27;2.13;;;0.40;;
21091;SDS011;10704;42.678;23.288;2023-04-15T09:30:56;1.90;;;0.60;;
21091;SDS011;10704;42.678;23.288;2023-04-15T09:33:23;0.68;;;0.43;;
21091;SDS011;10704;42.678;23.288;2023-04-15T09:35:58;1.50;;;0.47;;
21091;SDS011;10704;42.678;23.288;2023-04-15T09:38:31;2.28;;;0.40;;
21091;SDS011;10704;42.678;23.288;2023-04-15T09:40:57;1.55;;;0.38;;
21091;SDS011;10704;42.678;23.288;2023-04-15T09:43:36;1.98;;;0.50;;
21091;SDS011;10704;42.678;23.288;2023-04-15T09:46:03;4.45;;;0.70;;
21091;SDS011;10704;42.678;23.288;2023-04-15T09:48:29;6.25;;;1.00;;
21091;SDS011;10704;42.678;23.288;2023-04-15T09:50:59;7.30;;;0.70;;
21091;SDS011;10704;42.678;23.288;2023-04-15T09:53:26;2.95;;;0.82;;
21091;SDS011;10704;42.678;23.288;2023-04-15T09:55:53;4.60;;;1.10;;
21091;SDS011;10704;42.678;23.288;2023-04-15T10:00:49;6.72;;;2.28;;
21091;SDS011;10704;42.678;23.288;2023-04-15T10:03:20;5.82;;;1.60;;
21091;SDS011;10704;42.678;23.288;2023-04-15T10:05:54;6.45;;;1.67;;
21091;SDS011;10704;42.678;23.288;2023-04-15T10:08:26;5.32;;;1.45;;
21091;SDS011;10704;42.678;23.288;2023-04-15T10:10:53;3.75;;;0.82;;
21091;SDS011;10704;42.678;23.288;2023-04-15T10:13:23;2.55;;;0.93;;
21091;SDS011;10704;42.678;23.288;2023-04-15T10:16:00;1.10;;;0.40;;
21091;SDS011;10704;42.678;23.288;2023-04-15T10:18:33;8.60;;;1.30;;
21091;SDS011;10704;42.678;23.288;2023-04-15T10:21:00;3.20;;;1.10;;
21091;SDS011;10704;42.678;23.288;2023-04-15T10:23:26;1.23;;;0.63;;
21091;SDS011;10704;42.678;23.288;2023-04-15T10:25:52;2.70;;;0.70;;
21091;SDS011;10704;42.678;23.288;2023-04-15T10:28:19;6.32;;;1.25;;
21091;SDS011;10704;42.678;23.288;2023-04-15T10:30:49;2.67;;;0.95;;
21091;SDS011;10704;42.678;23.288;2023-04-15T10:33:22;3.65;;;0.70;;
21091;SDS011;10704;42.678;23.288;2023-04-15T10:35:49;3.05;;;0.77;;
21091;SDS011;10704;42.678;23.288;2023-04-15T10:44:00;4.70;;;1.50;;
21091;SDS011;10704;42.678;23.288;2023-04-15T10:49:08;4.03;;;0.80;;
21091;SDS011;10704;42.678;23.288;2023-04-15T10:51:43;2.97;;;1.20;;
21091;SDS011;10704;42.678;23.288;2023-04-15T10:54:29;4.18;;;1.65;;
21091;SDS011;10704;42.678;23.288;2023-04-15T10:59:37;2.65;;;0.73;;
21091;SDS011;10704;42.678;23.288;2023-04-15T11:05:08;5.75;;;0.90;;
21091;SDS011;10704;42.678;23.288;2023-04-15T11:12:45;2.85;;;1.20;;
21091;SDS011;10704;42.678;23.288;2023-04-15T11:18:08;3.90;;;1.15;;
21091;SDS011;10704;42.678;23.288;2023-04-15T11:23:19;3.13;;;0.95;;
21091;SDS011;10704;42.678;23.288;2023-04-15T11:26:07;3.03;;;0.70;;
21091;SDS011;10704;42.678;23.288;2023-04-15T11:28:36;4.13;;;1.05;;
21091;SDS011;10704;42.678;23.288;2023-04-15T11:31:07;2.83;;;1.00;;
21091;SDS011;10704;42.678;23.288;2023-04-15T11:33:38;2.10;;;0.65;;
21091;SDS011;10704;42.678;23.288;2023-04-15T11:36:19;2.05;;;0.73;;
21091;SDS011;10704;42.678;23.288;2023-04-15T11:38:45;4.78;;;1.08;;
21091;SDS011;10704;42.678;23.288;2023-04-15T11:41:11;4.22;;;1.33;;
21091;SDS011;10704;42.678;23.288;2023-04-15T11:43:37;3.85;;;1.30;;
21091;SDS011;10704;42.678;23.288;2023-04-15T11:46:03;4.22;;;1.05;;
21091;SDS011;10704;42.678;23.288;2023-04-15T11:48:30;3.63;;;1.30;;
21091;SDS011;10704;42.678;23.288;2023-04-15T11:50:58;4.60;;;1.13;;
21091;SDS011;10704;42.678;23.288;2023-04-15T11:53:41;2.67;;;0.90;;
21091;SDS011;10704;42.678;23.288;2023-04-15T11:56:10;2.47;;;0.80;;
21091;SDS011;10704;42.678;23.288;2023-04-15T11:58:41;5.78;;;1.20;;
21091;SDS011;10704;42.678;23.288;2023-04-15T12:01:08;2.45;;;0.88;;
21091;SDS011;10704;42.678;23.288;2023-04-15T12:11:45;3.25;;;0.88;;
21091;SDS011;10704;42.678;23.288;2023-04-15T12:16:53;6.28;;;1.52;;
21091;SDS011;10704;42.678;23.288;2023-04-15T12:22:11;3.28;;;1.10;;
21091;SDS011;10704;42.678;23.288;2023-04-15T12:24:40;4.78;;;0.88;;
21091;SDS011;10704;42.678;23.288;2023-04-15T12:27:14;4.80;;;1.00;;
21091;SDS011;10704;42.678;23.288;2023-04-15T12:29:41;3.72;;;0.85;;
21091;SDS011;10704;42.678;23.288;2023-04-15T12:32:12;4.40;;;1.00;;
21091;SDS011;10704;42.678;23.288;2023-04-15T12:34:43;2.65;;;0.88;;
21091;SDS011;10704;42.678;23.288;2023-04-15T12:37:17;1.73;;;0.70;;
21091;SDS011;10704;42.678;23.288;2023-04-15T12:39:44;3.30;;;0.90;;
21091;SDS011;10704;42.678;23.288;2023-04-15T12:42:13;5.00;;;0.70;;
21091;SDS011;10704;42.678;23.288;2023-04-15T12:44:39;6.55;;;1.10;;
21091;SDS011;10704;42.678;23.288;2023-04-15T12:47:06;4.38;;;1.08;;
21091;SDS011;10704;42.678;23.288;2023-04-15T12:49:33;2.67;;;0.88;;
21091;SDS011;10704;42.678;23.288;2023-04-15T12:51:59;2.30;;;0.80;;
21091;SDS011;10704;42.678;23.288;2023-04-15T12:54:26;3.80;;;0.88;;
21091;SDS011;10704;42.678;23.288;2023-04-15T12:56:52;5.00;;;1.10;;
21091;SDS011;10704;42.678;23.288;2023-04-15T12:59:19;3.58;;;1.10;;
21091;SDS011;10704;42.678;23.288;2023-04-15T13:01:46;2.00;;;0.88;;
21091;SDS011;10704;42.678;23.288;2023-04-15T13:04:13;2.88;;;0.90;;
21091;SDS011;10704;42.678;23.288;2023-04-15T13:06:39;1.77;;;0.75;;
21091;SDS011;10704;42.678;23.288;2023-04-15T13:09:05;2.83;;;0.90;;
21091;SDS011;10704;42.678;23.288;2023-04-15T13:11:31;4.55;;;0.90;;
21091;SDS011;10704;42.678;23.288;2023-04-15T13:14:04;2.45;;;0.77;;
21091;SDS011;10704;42.678;23.288;2023-04-15T13:16:32;1.65;;;0.50;;
21091;SDS011;10704;42.678;23.288;2023-04-15T13:18:59;3.42;;;0.73;;
21091;SDS011;10704;42.678;23.288;2023-04-15T13:21:26;3.78;;;0.80;;
21091;SDS011;10704;42.678;23.288;2023-04-15T13:23:52;3.28;;;1.13;;
21091;SDS011;10704;42.678;23.288;2023-04-15T13:26:18;1.85;;;0.93;;
21091;SDS011;10704;42.678;23.288;2023-04-15T13:28:44;3.75;;;1.08;;
21091;SDS011;10704;42.678;23.288;2023-04-15T13:31:10;2.22;;;1.10;;
21091;SDS011;10704;42.678;23.288;2023-04-15T13:33:36;3.35;;;0.80;;
21091;SDS011;10704;42.678;23.288;2023-04-15T13:36:02;3.22;;;0.60;;
21091;SDS011;10704;42.678;23.288;2023-04-15T13:38:28;3.45;;;0.90;;
21091;SDS011;10704;42.678;23.288;2023-04-15T13:40:54;6.40;;;1.30;;
21091;SDS011;10704;42.678;23.288;2023-04-15T13:43:20;2.10;;;0.88;;
21091;SDS011;10704;42.678;23.288;2023-04-15T13:45:46;5.03;;;1.00;;
21091;SDS011;10704;42.678;23.288;2023-04-15T13:48:12;2.97;;;0.88;;
21091;SDS011;10704;42.678;23.288;2023-04-15T13:50:38;9.45;;;1.10;;
21091;SDS011;10704;42.678;23.288;2023-04-15T13:53:05;2.00;;;0.65;;
21091;SDS011;10704;42.678;23.288;2023-04-15T13:55:31;5.63;;;0.80;;
21091;SDS011;10704;42.678;23.288;2023-04-15T13:57:59;2.83;;;1.05;;
21091;SDS011;10704;42.678;23.288;2023-04-15T14:00:25;4.68;;;0.73;;
21091;SDS011;10704;42.678;23.288;2023-04-15T14:02:51;5.82;;;0.70;;
21091;SDS011;10704;42.678;23.288;2023-04-15T14:05:17;3.53;;;0.73;;
21091;SDS011;10704;42.678;23.288;2023-04-15T14:07:42;4.10;;;0.90;;
21091;SDS011;10704;42.678;23.288;2023-04-15T14:10:08;2.72;;;0.52;;
21091;SDS011;10704;42.678;23.288;2023-04-15T14:12:34;5.38;;;0.70;;
21091;SDS011;10704;42.678;23.288;2023-04-15T14:15:00;3.58;;;0.70;;
21091;SDS011;10704;42.678;23.288;2023-04-15T14:17:26;4.35;;;0.93;;
21091;SDS011;10704;42.678;23.288;2023-04-15T14:19:52;3.13;;;0.70;;
21091;SDS011;10704;42.678;23.288;2023-04-15T14:22:18;4.88;;;0.85;;
21091;SDS011;10704;42.678;23.288;2023-04-15T14:24:44;2.92;;;0.73;;
21091;SDS011;10704;42.678;23.288;2023-04-15T14:27:10;3.58;;;0.65;;
21091;SDS011;10704;42.678;23.288;2023-04-15T14:29:36;2.75;;;0.75;;
21091;SDS011;10704;42.678;23.288;2023-04-15T14:32:02;3.33;;;0.65;;
21091;SDS011;10704;42.678;23.288;2023-04-15T14:34:28;3.60;;;0.70;;
21091;SDS011;10704;42.678;23.288;2023-04-15T14:36:55;3.40;;;0.82;;
21091;SDS011;10704;42.678;23.288;2023-04-15T14:39:21;5.65;;;0.80;;
21091;SDS011;10704;42.678;23.288;2023-04-15T14:41:48;1.73;;;0.60;;
21091;SDS011;10704;42.678;23.288;2023-04-15T14:44:14;4.78;;;0.68;;
21091;SDS011;10704;42.678;23.288;2023-04-15T14:46:40;3.92;;;0.70;;
21091;SDS011;10704;42.678;23.288;2023-04-15T14:49:06;3.45;;;0.65;;
21091;SDS011;10704;42.678;23.288;2023-04-15T14:51:32;5.80;;;1.00;;
21091;SDS011;10704;42.678;23.288;2023-04-15T14:53:58;2.63;;;0.68;;
21091;SDS011;10704;42.678;23.288;2023-04-15T14:56:25;3.97;;;0.70;;
21091;SDS011;10704;42.678;23.288;2023-04-15T14:58:51;2.47;;;0.80;;
21091;SDS011;10704;42.678;23.288;2023-04-15T15:01:18;4.82;;;1.13;;
21091;SDS011;10704;42.678;23.288;2023-04-15T15:03:45;4.30;;;0.77;;
21091;SDS011;10704;42.678;23.288;2023-04-15T15:06:11;4.45;;;0.90;;
21091;SDS011;10704;42.678;23.288;2023-04-15T15:08:37;6.97;;;0.90;;